world map with HSSS marked

HSSS - Airport

This information may not be accurate or current and is not valid for navigation or flight planning. No warranty of fitness for any purpose is made or implied.

flag of Sudan

Donate via PayPal

Additional information is available on the NEW Great Circle Mapper

Location
City:  Khartoum, Khartoum, Sudan
ICAO / IATA:HSSS / KRT

Details
Type:Airport (Aerodrome, Airfield)
Use:Public/Civil, Military
Latitude:15°35'22"N (15.589497)
Longitude:32°33'11"E (32.553161)
Datum:WGS 1984
Elevation:1265 ft (386 m)
Runways:1
Longest:9777 × 148 ft (2980 × 45 m)

Time
Timezone:UTC+2 (DST+4)
Local Time:

Weather
METAR:HSSS  161330Z 36008KT CAVOK 30/M01 Q1015 NOSIG
TAF:HSSS  161100Z 1612/1718 34008G18KT CAVOK

Related Locations
Nearby:
Farthest:KKR: 12412 mi / 19975 km
Kaukura Atoll, PF

Find:

   beyond  
but within

Other Information
Maps:
Sources:

  


 


Great Circle Mapper   Great Circle Mapper
Great Circle Mapper FAQ   Great Circle Mapper FAQ
  Karl's Home Page
KLSē   KLSē Home
   GC on Facebook
Airlines of the World   Airlines of the World
Donate via PayPal


Copyright © 2004-2018, Karl L. Swartz. All rights reserved.
All trademarks mentioned herein belong to their respective owners.

Please see credits for attribution and copyright information.

Karl Swartz <karl@kls2.com>
  Powered by FreeBSD
Valid HTML 4.01!
Labeled with ICRA
hCard Microformat
Geo Microformat